createdAt,value
2018-01-19T00:00:48.834Z,90.67
2018-01-19T00:01:59.276Z,90.76
2018-01-19T00:03:09.549Z,90.57
2018-01-19T00:04:19.709Z,90.57
2018-01-19T00:05:29.898Z,90.57
2018-01-19T00:06:39.775Z,90.67
2018-01-19T00:07:49.885Z,90.48
2018-01-19T00:09:00.072Z,90.67
2018-01-19T00:10:10.344Z,90.38
2018-01-19T00:11:20.497Z,90.67
2018-01-19T00:12:30.655Z,90.38
2018-01-19T00:13:41.049Z,90.48
2018-01-19T00:14:51.202Z,90.38
2018-01-19T00:16:01.311Z,90.38
2018-01-19T00:17:11.436Z,90.29
2018-01-19T00:18:21.574Z,90.48
2018-01-19T00:19:31.715Z,90.67
2018-01-19T00:20:41.859Z,90.48
2018-01-19T00:21:52.018Z,90.38
2018-01-19T00:23:02.257Z,90.57
2018-01-19T00:24:12.390Z,90.48
2018-01-19T00:25:22.544Z,90.48
2018-01-19T00:26:32.704Z,90.29
2018-01-19T00:27:42.828Z,90.48
2018-01-19T00:28:52.971Z,90.57
2018-01-19T00:30:03.157Z,90.38
2018-01-19T00:31:13.321Z,90.57
2018-01-19T00:32:23.193Z,91.05
2018-01-19T00:33:34.324Z,90.67
2018-01-19T00:34:44.471Z,91.14
2018-01-19T00:35:54.696Z,90.91
2018-01-19T00:37:04.949Z,90.72
2018-01-19T00:38:15.093Z,90.53
2018-01-19T00:39:25.244Z,90.76
2018-01-19T00:40:35.395Z,90.72
2018-01-19T00:41:45.546Z,91.09
2018-01-19T00:42:55.677Z,91.57
2018-01-19T00:44:05.855Z,91.28
2018-01-19T00:45:16.124Z,91.66
2018-01-19T00:46:26.252Z,91.09
2018-01-19T00:47:36.448Z,91
2018-01-19T00:48:46.654Z,91.57
2018-01-19T00:49:56.893Z,91.28
2018-01-19T00:51:07.065Z,91.28
2018-01-19T00:52:17.202Z,91.47
2018-01-19T00:53:27.312Z,91.28
2018-01-19T00:54:37.440Z,91.09
2018-01-19T00:55:47.622Z,91.28
2018-01-19T00:56:57.780Z,91.28
2018-01-19T00:58:07.991Z,91.52
2018-01-19T00:59:17.949Z,91.52
2018-01-19T01:00:28.110Z,91.52
2018-01-19T01:01:38.232Z,91.33
2018-01-19T01:02:48.369Z,90.95
2018-01-19T01:03:58.519Z,91.57
2018-01-19T01:05:08.713Z,91.61
2018-01-19T01:06:18.994Z,91.52
2018-01-19T01:07:29.131Z,91.09
2018-01-19T01:08:39.275Z,91.61
2018-01-19T01:09:49.391Z,91.71
2018-01-19T01:10:59.516Z,91.71
2018-01-19T01:12:09.693Z,91.57
2018-01-19T01:13:19.929Z,91.57
2018-01-19T01:14:30.135Z,91.71
2018-01-19T01:15:40.316Z,91.57
2018-01-19T01:16:50.208Z,91.09
2018-01-19T01:18:00.335Z,91.28
2018-01-19T01:19:10.538Z,91.33
2018-01-19T01:20:20.718Z,91.47
2018-01-19T01:21:30.864Z,91.38
2018-01-19T01:22:40.995Z,91.28
2018-01-19T01:23:51.120Z,91.52
2018-01-19T01:25:01.230Z,91.47
2018-01-19T01:26:11.373Z,91.38
2018-01-19T01:27:21.615Z,91.95
2018-01-19T01:28:31.859Z,91.52
2018-01-19T01:29:41.984Z,91.28
2018-01-19T01:30:52.144Z,91.99
2018-01-19T01:32:02.332Z,91.47
2018-01-19T01:33:12.485Z,91.66
2018-01-19T01:34:22.661Z,91.42
2018-01-19T01:35:32.800Z,91.61
2018-01-19T01:36:42.914Z,91.8
2018-01-19T01:37:53.027Z,91.42
2018-01-19T01:39:03.151Z,91.33
2018-01-19T01:40:13.270Z,91.33
2018-01-19T01:41:23.370Z,91.33
2018-01-19T01:42:33.537Z,91.33
2018-01-19T01:43:43.754Z,91.52
2018-01-19T01:44:53.919Z,91.14
2018-01-19T01:46:04.133Z,91.71
2018-01-19T01:47:14.289Z,91.61
2018-01-19T01:48:24.424Z,91.14
2018-01-19T01:49:34.524Z,91.33
2018-01-19T01:50:44.648Z,91.33
2018-01-19T01:51:54.809Z,91.33
2018-01-19T01:53:04.689Z,91.71
2018-01-19T01:54:14.839Z,91.52
2018-01-19T01:55:24.708Z,91.52
2018-01-19T01:56:34.825Z,91.52
2018-01-19T01:57:44.938Z,91.52
2018-01-19T01:58:55.112Z,91.61
2018-01-19T02:00:06.205Z,90.95
2018-01-19T02:01:16.465Z,90.57
2018-01-19T02:02:26.784Z,91.14
2018-01-19T02:03:36.655Z,90.67
2018-01-19T02:04:46.548Z,90.86
2018-01-19T02:05:56.799Z,90.86
2018-01-19T02:07:07.003Z,90.76
2018-01-19T02:08:17.138Z,90.95
2018-01-19T02:09:27.262Z,90.76
2018-01-19T02:10:37.412Z,90.72
2018-01-19T02:11:47.262Z,90.57
2018-01-19T02:12:57.644Z,90.62
2018-01-19T02:14:07.795Z,90.53
2018-01-19T02:15:17.939Z,91.09
2018-01-19T02:16:29.033Z,90.81
2018-01-19T02:17:39.234Z,91
2018-01-19T02:18:49.395Z,91
2018-01-19T02:19:59.656Z,90.72
2018-01-19T02:21:09.921Z,91.38
2018-01-19T02:22:21.028Z,91.57
2018-01-19T02:23:30.939Z,91.47
2018-01-19T02:24:41.053Z,91.47
2018-01-19T02:25:51.230Z,91.28
2018-01-19T02:27:01.350Z,91.28
2018-01-19T02:28:11.466Z,91.28
2018-01-19T02:29:21.582Z,91.47
2018-01-19T02:30:31.740Z,91.47
2018-01-19T02:31:41.881Z,91.66
2018-01-19T02:32:52.037Z,91.38
2018-01-19T02:34:02.239Z,91.47
2018-01-19T02:35:12.397Z,91.66
2018-01-19T02:36:22.576Z,91.47
2018-01-19T02:37:32.709Z,91.47
2018-01-19T02:38:42.600Z,91.47
2018-01-19T02:39:52.829Z,91.28
2018-01-19T02:41:03.025Z,91.09
2018-01-19T02:42:13.285Z,91.28
2018-01-19T02:43:23.515Z,91.09
2018-01-19T02:44:33.616Z,91.09
2018-01-19T02:45:43.769Z,91.57
2018-01-19T02:46:53.898Z,91.47
2018-01-19T02:48:04.018Z,91.38
2018-01-19T02:49:14.223Z,91.38
2018-01-19T02:50:24.412Z,91.47
2018-01-19T02:51:34.583Z,91.66
2018-01-19T02:52:44.875Z,91.76
2018-01-19T02:53:55.038Z,91.85
2018-01-19T02:55:05.161Z,91.95
2018-01-19T02:56:15.271Z,91.95
2018-01-19T02:57:25.371Z,91.95
2018-01-19T02:58:35.586Z,91.85
2018-01-19T02:59:45.702Z,91.95
2018-01-19T03:00:55.855Z,91.66
2018-01-19T03:02:06.048Z,91.66
2018-01-19T03:03:16.220Z,91.66
2018-01-19T03:04:26.344Z,91.95
2018-01-19T03:05:36.451Z,91.76
2018-01-19T03:06:46.444Z,91.57
2018-01-19T03:07:56.649Z,91.66
2018-01-19T03:09:06.839Z,91.66
2018-01-19T03:10:17.078Z,91.76
2018-01-19T03:11:27.228Z,91.66
2018-01-19T03:12:37.326Z,91.76
2018-01-19T03:13:47.500Z,91.85
2018-01-19T03:14:58.576Z,92.23
2018-01-19T03:16:08.738Z,91.57
2018-01-19T03:17:19.019Z,91.76
2018-01-19T03:18:29.145Z,92.33
2018-01-19T03:19:39.248Z,92.04
2018-01-19T03:20:49.490Z,91.66
2018-01-19T03:21:59.363Z,92.04
2018-01-19T03:23:09.655Z,92.04
2018-01-19T03:24:19.881Z,91.76
2018-01-19T03:25:30.074Z,91.66
2018-01-19T03:26:40.303Z,91.57
2018-01-19T03:27:50.498Z,91.47
2018-01-19T03:29:00.727Z,91.76
2018-01-19T03:30:10.854Z,91.95
2018-01-19T03:31:21.073Z,91.76
2018-01-19T03:32:31.191Z,91.95
2018-01-19T03:33:41.312Z,91.95
2018-01-19T03:34:51.465Z,91.76
2018-01-19T03:36:01.626Z,91.76
2018-01-19T03:37:11.794Z,91.47
2018-01-19T03:38:21.910Z,91.57
2018-01-19T03:39:32.067Z,91.47
2018-01-19T03:40:42.194Z,91.66
2018-01-19T03:41:52.310Z,91.85
2018-01-19T03:43:02.182Z,91.66
2018-01-19T03:44:12.301Z,91.76
2018-01-19T03:45:23.468Z,91.76
2018-01-19T03:46:33.581Z,92.42
2018-01-19T03:47:43.732Z,91.66
2018-01-19T03:48:54.810Z,92.04
2018-01-19T03:50:04.989Z,92.23
2018-01-19T03:51:15.104Z,91.95
2018-01-19T03:52:25.217Z,91.85
2018-01-19T03:53:35.398Z,92.14
2018-01-19T03:54:45.502Z,91.66
2018-01-19T03:55:55.617Z,91.57
2018-01-19T03:57:05.739Z,92.04
2018-01-19T03:58:15.845Z,91.66
2018-01-19T03:59:25.935Z,91.76
2018-01-19T04:00:36.182Z,91.85
2018-01-19T04:01:46.319Z,91.76
2018-01-19T04:02:56.418Z,91.57
2018-01-19T04:04:06.524Z,91.47
2018-01-19T04:05:16.678Z,91.76
2018-01-19T04:06:26.804Z,91.66
2018-01-19T04:07:36.908Z,91.57
2018-01-19T04:08:47.046Z,91.57
2018-01-19T04:09:57.165Z,91.85
2018-01-19T04:11:07.014Z,91.76
2018-01-19T04:12:17.143Z,91.85
2018-01-19T04:13:27.280Z,91.95
2018-01-19T04:14:37.506Z,91.95
2018-01-19T04:15:47.621Z,91.76
2018-01-19T04:16:57.757Z,91.85
2018-01-19T04:18:07.918Z,91.85
2018-01-19T04:19:18.071Z,91.28
2018-01-19T04:20:28.246Z,91.47
2018-01-19T04:21:38.447Z,91.19
2018-01-19T04:22:48.539Z,91.38
2018-01-19T04:23:58.750Z,91.28
2018-01-19T04:25:08.915Z,91.38
2018-01-19T04:26:19.248Z,91.47
2018-01-19T04:27:29.424Z,91.38
2018-01-19T04:28:39.549Z,91.47
2018-01-19T04:29:49.668Z,91.47
2018-01-19T04:30:59.989Z,91.28
2018-01-19T04:32:10.107Z,91.47
2018-01-19T04:33:20.261Z,91.38
2018-01-19T04:34:30.387Z,91.85
2018-01-19T04:35:40.544Z,91.85
2018-01-19T04:36:50.697Z,91.66
2018-01-19T04:38:00.816Z,92.04
2018-01-19T04:39:10.705Z,92.33
2018-01-19T04:40:20.908Z,91.95
2018-01-19T04:41:31.106Z,92.04
2018-01-19T04:42:41.538Z,91.95
2018-01-19T04:43:51.635Z,92.23
2018-01-19T04:45:01.740Z,91.85
2018-01-19T04:46:11.865Z,92.04
2018-01-19T04:47:21.993Z,92.04
2018-01-19T04:48:32.104Z,91.85
2018-01-19T04:49:42.310Z,91.76
2018-01-19T04:50:52.412Z,92.14
2018-01-19T04:52:02.572Z,92.14
2018-01-19T04:53:12.737Z,92.04
2018-01-19T04:54:22.906Z,92.23
2018-01-19T04:55:32.771Z,92.04
2018-01-19T04:56:42.904Z,92.61
2018-01-19T04:57:53.027Z,92.42
2018-01-19T04:59:03.151Z,92.42
2018-01-19T05:00:13.324Z,91.95
2018-01-19T05:01:23.454Z,92.04
2018-01-19T05:02:33.741Z,92.61
2018-01-19T05:03:43.888Z,91.95
2018-01-19T05:04:54.139Z,91.76
2018-01-19T05:06:05.305Z,91.76
2018-01-19T05:07:15.246Z,92.04
2018-01-19T05:08:25.350Z,91.66
2018-01-19T05:09:35.502Z,92.23
2018-01-19T05:10:45.362Z,92.14
2018-01-19T05:11:55.493Z,92.23
2018-01-19T05:13:05.781Z,92.04
2018-01-19T05:14:15.916Z,92.14
2018-01-19T05:15:26.182Z,92.04
2018-01-19T05:16:36.512Z,92.04
2018-01-19T05:17:46.632Z,91.95
2018-01-19T05:18:56.758Z,92.14
2018-01-19T05:20:06.915Z,91.76
2018-01-19T05:21:17.140Z,92.04
2018-01-19T05:22:27.426Z,91.76
2018-01-19T05:23:37.692Z,91.76
2018-01-19T05:24:47.907Z,91.95
2018-01-19T05:25:58.178Z,92.23
2018-01-19T05:27:08.334Z,92.23
2018-01-19T05:28:18.536Z,92.04
2018-01-19T05:29:28.742Z,91.47
2018-01-19T05:30:38.871Z,91.85
2018-01-19T05:31:49.071Z,91.38
2018-01-19T05:32:59.211Z,91.76
2018-01-19T05:34:09.332Z,91.76
2018-01-19T05:35:19.437Z,91.95
2018-01-19T05:36:29.586Z,91.76
2018-01-19T05:37:39.729Z,91.38
2018-01-19T05:38:49.826Z,91.28
2018-01-19T05:39:59.982Z,91.38
2018-01-19T05:41:10.094Z,91.66
2018-01-19T05:42:20.286Z,91.28
2018-01-19T05:43:30.504Z,91.09
2018-01-19T05:44:40.663Z,91.28
2018-01-19T05:45:50.793Z,91.47
2018-01-19T05:47:00.970Z,91.38
2018-01-19T05:48:11.183Z,91.57
2018-01-19T05:49:21.376Z,91.57
2018-01-19T05:50:31.570Z,91.47
2018-01-19T05:51:41.804Z,91.47
2018-01-19T05:52:51.930Z,91.38
2018-01-19T05:54:01.786Z,91.66
2018-01-19T05:55:11.886Z,91.57
2018-01-19T05:56:22.010Z,91.57
2018-01-19T05:57:31.876Z,91.57
2018-01-19T05:58:42.002Z,91.47
2018-01-19T05:59:52.135Z,90.81
2018-01-19T06:01:02.011Z,91.09
2018-01-19T06:02:12.135Z,90.81
2018-01-19T06:03:22.279Z,91
2018-01-19T06:04:32.149Z,90.81
2018-01-19T06:05:42.300Z,91.09
2018-01-19T06:06:52.183Z,90.53
2018-01-19T06:08:02.305Z,90.62
2018-01-19T06:09:12.454Z,90.91
2018-01-19T06:10:22.646Z,90.72
2018-01-19T06:11:32.778Z,90.91
2018-01-19T06:12:42.969Z,90.81
2018-01-19T06:13:52.897Z,90.81
2018-01-19T06:15:03.052Z,90.91
2018-01-19T06:16:13.190Z,91
2018-01-19T06:17:23.362Z,90.34
2018-01-19T06:18:33.606Z,91
2018-01-19T06:19:43.853Z,91
2018-01-19T06:20:53.646Z,90.24
2018-01-19T06:22:03.554Z,90.15
2018-01-19T06:23:13.659Z,90.53
2018-01-19T06:24:23.806Z,90.43
2018-01-19T06:25:33.981Z,90.53
2018-01-19T06:26:44.092Z,90.43
2018-01-19T06:27:54.200Z,90.81
2018-01-19T06:29:04.350Z,90.62
2018-01-19T06:30:14.555Z,90.53
2018-01-19T06:31:24.683Z,90.05
2018-01-19T06:32:34.812Z,90.05
2018-01-19T06:33:45.058Z,90.62
2018-01-19T06:34:55.325Z,90.62
2018-01-19T06:36:05.478Z,90.15
2018-01-19T06:37:15.702Z,90.05
2018-01-19T06:38:25.844Z,90.15
2018-01-19T06:39:35.965Z,90.15
2018-01-19T06:40:46.131Z,89.96
2018-01-19T06:41:56.241Z,90.15
2018-01-19T06:43:06.400Z,90.15
2018-01-19T06:44:16.527Z,90.15
2018-01-19T06:45:26.681Z,90.43
2018-01-19T06:46:36.787Z,90.15
2018-01-19T06:47:46.913Z,89.77
2018-01-19T06:48:57.035Z,89.77
2018-01-19T06:50:07.209Z,89.67
2018-01-19T06:51:17.412Z,89.86
2018-01-19T06:52:27.398Z,89.96
2018-01-19T06:53:37.524Z,89.96
2018-01-19T06:54:47.638Z,89.96
2018-01-19T06:55:57.875Z,89.77
2018-01-19T06:57:08.070Z,89.77
2018-01-19T06:58:18.190Z,90.05
2018-01-19T06:59:28.348Z,90.05
2018-01-19T07:00:38.450Z,90.05
2018-01-19T07:01:48.580Z,90.15
2018-01-19T07:02:58.711Z,89.86
2018-01-19T07:04:08.910Z,89.39
2018-01-19T07:05:19.126Z,89.67
2018-01-19T07:06:29.318Z,89.62
2018-01-19T07:07:39.533Z,89.58
2018-01-19T07:08:49.843Z,89.81
2018-01-19T07:10:00.059Z,89.91
2018-01-19T07:11:10.227Z,89.91
2018-01-19T07:12:20.415Z,89.62
2018-01-19T07:13:30.744Z,89.43
2018-01-19T07:14:40.995Z,89.62
2018-01-19T07:15:50.855Z,89.58
2018-01-19T07:17:00.984Z,89.77
2018-01-19T07:18:11.119Z,89.39
2018-01-19T07:19:21.456Z,89.77
2018-01-19T07:20:31.315Z,89.29
2018-01-19T07:21:41.440Z,89.39
2018-01-19T07:22:51.565Z,89.39
2018-01-19T07:24:01.683Z,89.58
2018-01-19T07:25:12.094Z,89.39
2018-01-19T07:26:21.896Z,89.48
2018-01-19T07:27:31.785Z,89.67
2018-01-19T07:28:41.694Z,89.77
2018-01-19T07:29:51.895Z,89.77
2018-01-19T07:31:02.167Z,89.2
2018-01-19T07:32:12.075Z,89.58
2018-01-19T07:33:22.210Z,89.62
2018-01-19T07:34:32.372Z,89.01
2018-01-19T07:35:42.492Z,89.39
2018-01-19T07:36:52.597Z,89.58
2018-01-19T07:38:02.725Z,89.67
2018-01-19T07:39:12.862Z,89.77
2018-01-19T07:40:23.029Z,89.29
2018-01-19T07:41:33.155Z,89.11
2018-01-19T07:42:43.279Z,89.58
2018-01-19T07:43:53.463Z,89.77
2018-01-19T07:45:03.712Z,89.39
2018-01-19T07:46:13.622Z,89.58
2018-01-19T07:47:23.801Z,89.58
2018-01-19T07:48:33.954Z,89.48
2018-01-19T07:49:44.145Z,89.48
2018-01-19T07:50:54.314Z,89.62
2018-01-19T07:52:04.514Z,89.86
2018-01-19T07:53:14.722Z,89.72
2018-01-19T07:54:24.858Z,89.58
2018-01-19T07:55:34.982Z,89.39
2018-01-19T07:56:45.160Z,89.58
2018-01-19T07:57:55.312Z,90
2018-01-19T07:59:05.451Z,90
2018-01-19T08:00:15.595Z,89.53
2018-01-19T08:01:25.770Z,89.81
2018-01-19T08:02:36.010Z,89.91
2018-01-19T08:03:46.119Z,89.91
2018-01-19T08:04:56.252Z,89.53
2018-01-19T08:06:06.374Z,89.53
2018-01-19T08:07:16.490Z,89.43
2018-01-19T08:08:26.621Z,89.62
2018-01-19T08:09:36.681Z,89.62
2018-01-19T08:10:46.883Z,89.53
2018-01-19T08:11:57.013Z,89.72
2018-01-19T08:13:07.231Z,89.81
2018-01-19T08:14:17.374Z,89.62
2018-01-19T08:15:27.567Z,89.72
2018-01-19T08:16:37.783Z,89.72
2018-01-19T08:17:48.104Z,89.34
2018-01-19T08:18:58.291Z,89.25
2018-01-19T08:20:08.451Z,89.43
2018-01-19T08:21:18.765Z,89.34
2018-01-19T08:22:29.003Z,89.81
2018-01-19T08:23:39.199Z,89.53
2018-01-19T08:24:49.433Z,89.53
2018-01-19T08:25:59.574Z,89.34
2018-01-19T08:27:09.821Z,89.34
2018-01-19T08:28:20.044Z,89.25
2018-01-19T08:29:31.255Z,89.06
2018-01-19T08:30:41.405Z,89.34
2018-01-19T08:31:51.629Z,89.15
2018-01-19T08:33:01.770Z,89.43
2018-01-19T08:34:11.977Z,88.77
2018-01-19T08:35:22.122Z,88.96
2018-01-19T08:36:32.258Z,89.15
2018-01-19T08:37:42.397Z,88.87
2018-01-19T08:38:52.502Z,88.96
2018-01-19T08:40:02.672Z,88.68
2018-01-19T08:41:12.887Z,89.06
2018-01-19T08:42:23.061Z,89.25
2018-01-19T08:43:33.185Z,89.25
2018-01-19T08:44:43.320Z,89.15
2018-01-19T08:45:53.500Z,88.87
2018-01-19T08:47:03.634Z,88.96
2018-01-19T08:48:13.803Z,89.15
2018-01-19T08:49:23.955Z,88.96
2018-01-19T08:50:34.202Z,88.87
2018-01-19T08:51:44.581Z,88.96
2018-01-19T08:52:54.782Z,88.58
2018-01-19T08:54:04.964Z,88.77
2018-01-19T08:55:15.187Z,88.48
2018-01-19T08:56:25.362Z,88.96
2018-01-19T08:57:35.537Z,88.39
2018-01-19T08:58:45.700Z,88.48
2018-01-19T08:59:55.633Z,88.58
2018-01-19T09:01:05.775Z,88.39
2018-01-19T09:02:15.983Z,88.68
2018-01-19T09:03:26.105Z,88.1
2018-01-19T09:04:36.363Z,88.2
2018-01-19T09:05:46.473Z,88.06
2018-01-19T09:06:56.621Z,88.15
2018-01-19T09:08:06.787Z,88.06
2018-01-19T09:09:16.968Z,88.24
2018-01-19T09:10:27.143Z,88.15
2018-01-19T09:11:37.318Z,88.06
2018-01-19T09:12:47.485Z,88.24
2018-01-19T09:13:57.669Z,87.96
2018-01-19T09:15:07.984Z,87.87
2018-01-19T09:16:18.136Z,87.68
2018-01-19T09:17:28.344Z,87.87
2018-01-19T09:18:38.662Z,87.49
2018-01-19T09:19:48.927Z,87.3
2018-01-19T09:20:59.097Z,86.82
2018-01-19T09:22:09.347Z,86.72
2018-01-19T09:23:19.526Z,86.91
2018-01-19T09:24:29.708Z,86.91
2018-01-19T09:25:39.834Z,87.01
2018-01-19T09:26:50.084Z,86.82
2018-01-19T09:28:00.216Z,86.63
2018-01-19T09:29:10.407Z,85.87
2018-01-19T09:30:20.569Z,86.63
2018-01-19T09:31:30.720Z,86.54
2018-01-19T09:32:40.823Z,86.63
2018-01-19T09:33:50.742Z,86.63
2018-01-19T09:35:00.916Z,86.44
2018-01-19T09:36:11.178Z,86.63
2018-01-19T09:37:21.303Z,86.91
2018-01-19T09:38:31.497Z,86.82
2018-01-19T09:39:41.661Z,87.2
2018-01-19T09:40:51.825Z,87.49
2018-01-19T09:42:02.053Z,87.01
2018-01-19T09:43:12.289Z,87.3
2018-01-19T09:44:22.555Z,87.3
2018-01-19T09:45:32.880Z,87.2
2018-01-19T09:46:43.035Z,86.72
2018-01-19T09:47:53.248Z,86.91
2018-01-19T09:49:03.369Z,87.01
2018-01-19T09:50:13.659Z,87.49
2018-01-19T09:51:23.813Z,87.49
2018-01-19T09:52:33.751Z,87.11
2018-01-19T09:53:43.879Z,87.11
2018-01-19T09:54:54.988Z,87.01
2018-01-19T09:56:05.400Z,87.77
2018-01-19T09:57:15.615Z,87.39
2018-01-19T09:58:25.798Z,87.3
2018-01-19T09:59:35.948Z,87.96
2018-01-19T10:00:46.321Z,87.68
2018-01-19T10:01:56.432Z,87.68
2018-01-19T10:03:06.628Z,87.77
2018-01-19T10:04:16.751Z,87.87
2018-01-19T10:05:26.864Z,88.24
2018-01-19T10:06:37.228Z,88.06
2018-01-19T10:07:47.387Z,88.34
2018-01-19T10:08:57.546Z,88.34
2018-01-19T10:10:07.669Z,88.34
2018-01-19T10:11:17.784Z,88.34
2018-01-19T10:12:27.933Z,88.24
2018-01-19T10:13:38.087Z,88.34
2018-01-19T10:14:48.262Z,88.06
2018-01-19T10:15:58.420Z,87.87
2018-01-19T10:17:08.317Z,87.77
2018-01-19T10:18:18.476Z,87.68
2018-01-19T10:19:28.659Z,87.68
2018-01-19T10:20:38.816Z,87.87
2018-01-19T10:21:48.963Z,88.01
2018-01-19T10:22:59.105Z,87.72
2018-01-19T10:24:09.240Z,88.1
2018-01-19T10:25:19.406Z,87.62
2018-01-19T10:26:29.579Z,87.24
2018-01-19T10:27:39.748Z,87.05
2018-01-19T10:28:49.968Z,86.96
2018-01-19T10:30:00.159Z,86.96
2018-01-19T10:31:10.434Z,86.49
2018-01-19T10:32:20.309Z,86.68
2018-01-19T10:33:30.455Z,86.58
2018-01-19T10:34:40.338Z,86.53
2018-01-19T10:35:50.469Z,85.96
2018-01-19T10:37:00.620Z,86.15
2018-01-19T10:38:10.922Z,85.24
2018-01-19T10:39:21.134Z,85.24
2018-01-19T10:40:31.295Z,84.67
2018-01-19T10:41:40.927Z,84.05
2018-01-19T10:42:51.112Z,83.86
2018-01-19T10:44:01.590Z,83.58
2018-01-19T10:45:12.864Z,83.19
2018-01-19T10:46:24.748Z,83.14
2018-01-19T10:47:35.871Z,83.04
2018-01-19T10:48:46.677Z,82.48
2018-01-19T10:49:57.460Z,82.19
2018-01-19T10:51:07.593Z,81.56
2018-01-19T10:52:17.782Z,81.18
2018-01-19T10:53:28.139Z,80.13
2018-01-19T10:54:38.320Z,80.55
2018-01-19T10:55:48.482Z,79.8
2018-01-19T10:56:58.368Z,79.51
2018-01-19T10:58:08.515Z,79.07
2018-01-19T10:59:18.790Z,78.41
2018-01-19T11:00:28.994Z,78.41
2018-01-19T11:01:39.160Z,78.03
2018-01-19T11:02:49.530Z,78.08
2018-01-19T11:03:59.677Z,77.61
2018-01-19T11:05:09.858Z,76.46
2018-01-19T11:06:20.012Z,76.37
2018-01-19T11:07:29.947Z,75.7
2018-01-19T11:08:40.112Z,76.37
2018-01-19T11:09:50.299Z,76.27
2018-01-19T11:11:00.448Z,76.37
2018-01-19T11:12:10.614Z,76.37
2018-01-19T11:13:20.766Z,76.37
2018-01-19T11:14:30.927Z,75.79
2018-01-19T11:15:40.978Z,75.79
2018-01-19T11:16:51.127Z,75.32
2018-01-19T11:18:01.374Z,74.94
2018-01-19T11:19:11.525Z,74.08
2018-01-19T11:20:21.700Z,73.7
2018-01-19T11:21:31.864Z,73.17
2018-01-19T11:22:42.145Z,73.93
2018-01-19T11:23:52.042Z,73.93
2018-01-19T11:25:02.178Z,72.92
2018-01-19T11:26:12.332Z,71.96
2018-01-19T11:27:22.506Z,71.2
2018-01-19T11:28:32.653Z,70.63
2018-01-19T11:29:42.817Z,69.52
2018-01-19T11:30:52.961Z,68.66
2018-01-19T11:32:03.146Z,67.8
2018-01-19T11:33:13.310Z,67.42
2018-01-19T11:34:23.468Z,66.78
2018-01-19T11:35:33.657Z,66.31
2018-01-19T11:36:43.837Z,66.31
2018-01-19T11:37:53.999Z,65.45
2018-01-19T11:39:04.153Z,65.55
2018-01-19T11:40:15.365Z,65.64
2018-01-19T11:41:25.510Z,65.83
2018-01-19T11:42:35.650Z,64.81
2018-01-19T11:43:45.816Z,66.02
2018-01-19T11:44:56.007Z,65.74
2018-01-19T11:46:06.275Z,66.15
2018-01-19T11:47:16.439Z,65.87
2018-01-19T11:48:26.786Z,65.67
2018-01-19T11:49:36.937Z,65.93
2018-01-19T11:50:47.099Z,65.64
2018-01-19T11:51:57.281Z,65.83
2018-01-19T11:53:07.455Z,65.7
2018-01-19T11:54:17.690Z,65.89
2018-01-19T11:55:27.649Z,65.52
2018-01-19T11:56:37.828Z,65.39
2018-01-19T11:57:48.003Z,66.24
2018-01-19T11:58:58.153Z,66.34
2018-01-19T12:00:08.060Z,66.78
2018-01-19T12:01:18.197Z,66.88
2018-01-19T12:02:28.367Z,67.55
2018-01-19T12:03:38.605Z,67.74
2018-01-19T12:04:48.763Z,67.8
2018-01-19T12:05:58.928Z,68.18
2018-01-19T12:07:09.091Z,68.08
2018-01-19T12:08:19.340Z,68.75
2018-01-19T12:09:29.658Z,68.08
2018-01-19T12:10:39.899Z,67.99
2018-01-19T12:11:50.033Z,68.08
2018-01-19T12:13:00.258Z,68.37
2018-01-19T12:14:10.406Z,68.75
2018-01-19T12:15:20.658Z,68.46
2018-01-19T12:16:30.886Z,68.75
2018-01-19T12:17:41.036Z,69.13
2018-01-19T12:18:51.209Z,69.04
2018-01-19T12:20:01.361Z,68.46
2018-01-19T12:21:11.528Z,68.37
2018-01-19T12:22:22.616Z,68.37
2018-01-19T12:23:32.790Z,68.12
2018-01-19T12:24:43.079Z,68.12
2018-01-19T12:25:53.285Z,67.74
2018-01-19T12:27:03.431Z,67.55
2018-01-19T12:28:13.421Z,67.68
2018-01-19T12:29:23.562Z,67.58
2018-01-19T12:30:33.733Z,67.48
2018-01-19T12:31:43.881Z,66.05
2018-01-19T12:32:53.817Z,65.48
2018-01-19T12:34:03.702Z,65.77
2018-01-19T12:35:13.946Z,65.86
2018-01-19T12:36:24.143Z,65.77
2018-01-19T12:37:34.006Z,65.29
2018-01-19T12:38:44.198Z,65.58
2018-01-19T12:39:54.496Z,65.67
2018-01-19T12:41:04.647Z,65.67
2018-01-19T12:42:14.883Z,65.45
2018-01-19T12:43:25.024Z,65.07
2018-01-19T12:44:35.193Z,65.73
2018-01-19T12:45:45.376Z,66.56
2018-01-19T12:46:55.669Z,66.37
2018-01-19T12:48:05.846Z,66.75
2018-01-19T12:49:16.074Z,67.8
2018-01-19T12:50:26.249Z,67.76
2018-01-19T12:51:36.638Z,68.05
2018-01-19T12:52:46.896Z,68.43
2018-01-19T12:53:57.038Z,68.33
2018-01-19T12:55:07.172Z,68.71
2018-01-19T12:56:17.426Z,68.62
2018-01-19T12:57:27.734Z,69.1
2018-01-19T12:58:37.890Z,69.29
2018-01-19T12:59:48.089Z,69.38
2018-01-19T13:00:58.311Z,69.73
2018-01-19T13:02:08.561Z,70.1
2018-01-19T13:03:18.708Z,70.58
2018-01-19T13:04:28.826Z,70.58
2018-01-19T13:05:39.007Z,70.58
2018-01-19T13:06:49.156Z,70.49
2018-01-19T13:07:59.353Z,71.06
2018-01-19T13:09:09.573Z,71.12
2018-01-19T13:10:19.747Z,71.22
2018-01-19T13:11:29.921Z,71.31
2018-01-19T13:12:40.128Z,71.5
2018-01-19T13:13:50.342Z,72.26
2018-01-19T13:15:00.537Z,71.97
2018-01-19T13:16:10.773Z,72.35
2018-01-19T13:17:21.047Z,72.64
2018-01-19T13:18:31.310Z,72.89
2018-01-19T13:19:41.558Z,72.7
2018-01-19T13:20:51.722Z,73.08
2018-01-19T13:22:02.064Z,72.89
2018-01-19T13:23:12.317Z,73.36
2018-01-19T13:24:22.490Z,73.55
2018-01-19T13:25:32.640Z,72.99
2018-01-19T13:26:42.288Z,73.36
2018-01-19T13:27:52.500Z,73.65
2018-01-19T13:29:02.709Z,73.74
2018-01-19T13:30:12.899Z,73.84
2018-01-19T13:31:22.839Z,73.74
2018-01-19T13:32:33.081Z,73.46
2018-01-19T13:33:42.955Z,74.51
2018-01-19T13:34:53.104Z,73.84
2018-01-19T13:36:03.357Z,73.65
2018-01-19T13:37:13.545Z,74.31
2018-01-19T13:38:23.716Z,74.12
2018-01-19T13:39:33.918Z,74.22
2018-01-19T13:40:43.864Z,74.18
2018-01-19T13:41:54.137Z,74.31
2018-01-19T13:43:04.603Z,74.37
2018-01-19T13:44:14.752Z,74.85
2018-01-19T13:45:24.935Z,74.66
2018-01-19T13:46:35.103Z,74.94
2018-01-19T13:47:45.279Z,75.13
2018-01-19T13:48:55.413Z,75.23
2018-01-19T13:50:05.511Z,75.7
2018-01-19T13:51:15.692Z,75.6
2018-01-19T13:52:26.833Z,75.6
2018-01-19T13:53:37.003Z,75.7
2018-01-19T13:54:47.287Z,75.79
2018-01-19T13:55:57.500Z,76.37
2018-01-19T13:57:07.691Z,76.27
2018-01-19T13:58:17.963Z,76.18
2018-01-19T13:59:28.093Z,76.37
2018-01-19T14:00:38.332Z,76.46
2018-01-19T14:01:48.515Z,76.46
2018-01-19T14:02:58.715Z,76.65
2018-01-19T14:04:08.980Z,76.65
2018-01-19T14:05:18.883Z,76.93
2018-01-19T14:06:29.028Z,76.75
2018-01-19T14:07:39.244Z,76.93
2018-01-19T14:08:49.425Z,76.93
2018-01-19T14:10:01.115Z,76.93
2018-01-19T14:11:15.853Z,77.6
2018-01-19T14:12:29.721Z,77.51
2018-01-19T14:13:39.959Z,77.31
2018-01-19T14:14:50.159Z,77.89
2018-01-19T14:16:00.444Z,77.98
2018-01-19T14:17:10.888Z,77.7
2018-01-19T14:18:21.015Z,78.08
2018-01-19T14:19:31.217Z,78.27
2018-01-19T14:20:41.418Z,77.89
2018-01-19T14:21:51.674Z,77.98
2018-01-19T14:23:01.897Z,78.45
2018-01-19T14:24:12.069Z,78.51
2018-01-19T14:25:22.214Z,78.27
2018-01-19T14:26:32.547Z,78.27
2018-01-19T14:27:42.752Z,78.08
2018-01-19T14:28:52.640Z,78.08
2018-01-19T14:30:02.601Z,77.98
2018-01-19T14:31:12.786Z,78.32
2018-01-19T14:32:22.980Z,78.45
2018-01-19T14:33:33.258Z,78.27
2018-01-19T14:34:43.562Z,77.94
2018-01-19T14:35:53.490Z,77.94
2018-01-19T14:37:03.686Z,78.61
2018-01-19T14:38:13.860Z,78.51
2018-01-19T14:39:23.864Z,79.08
2018-01-19T14:40:34.136Z,78.42
2018-01-19T14:41:44.316Z,78.51
2018-01-19T14:42:54.531Z,78.23
2018-01-19T14:44:04.788Z,78.7
2018-01-19T14:45:14.980Z,78.23
2018-01-19T14:46:24.789Z,78.8
2018-01-19T14:47:34.796Z,78.61
2018-01-19T14:48:45.220Z,78.7
2018-01-19T14:49:55.475Z,78.99
2018-01-19T14:51:05.770Z,78.99
2018-01-19T14:52:15.993Z,78.61
2018-01-19T14:53:26.150Z,79.08
2018-01-19T14:54:36.293Z,79.08
2018-01-19T14:55:46.576Z,79.27
2018-01-19T14:56:56.725Z,79.17
2018-01-19T14:58:06.939Z,79.74
2018-01-19T14:59:17.142Z,79.84
2018-01-19T15:00:27.362Z,80.03
2018-01-19T15:01:37.268Z,80.03
2018-01-19T15:02:47.402Z,80.03
2018-01-19T15:03:57.575Z,80.22
2018-01-19T15:05:07.753Z,80.79
2018-01-19T15:06:17.993Z,81.07